Time;durP1;ratioP1;P1;durP2;ratioP2;P2;SDS_P1;SDS_P2;PMS_P1;PMS_P2;Temp;Humidity;BMP_temperature;BMP_pressure;BME280_temperature;BME280_humidity;BME280_pressure;Samples;Min_cycle;Max_cycle;Signal;HPM_P1;HPM_P2
2023/05/27 00:00:04;;;;;;;;;;;18.30;49.40;;;14.53;78.31;95957.72;5013068;28;20003;-49
2023/05/27 00:02:30;;;;;;;;;;;18.30;49.50;;;14.57;77.51;95953.44;4999758;28;19986;-50
2023/05/27 00:04:56;;;;;;;;;;;18.30;49.50;;;14.65;77.20;95959.25;5012891;28;19968;-50
2023/05/27 00:07:22;;;;;;;;;;;18.30;49.60;;;14.68;77.15;95958.69;5013725;28;19913;-48
2023/05/27 00:09:48;;;;;;;;;;;18.40;49.60;;;14.67;77.36;95954.44;5012535;28;19913;-50
2023/05/27 00:12:13;;;;;;;;;;;18.40;49.60;;;14.66;77.25;95948.25;5012405;28;20283;-51
2023/05/27 00:14:39;;;;;;;;;;;18.40;49.60;;;14.68;77.32;95959.50;5013332;28;19909;-53
2023/05/27 00:17:05;;;;;;;;;;;18.40;49.60;;;14.67;76.78;95955.22;5010905;28;19913;-47
2023/05/27 00:19:31;;;;;;;;;;;18.40;49.60;;;14.68;76.92;95953.34;5013408;28;19913;-50
2023/05/27 00:21:57;;;;;;;;;;;18.50;49.60;;;14.68;76.47;95950.66;5013062;28;19909;-48
2023/05/27 00:24:23;;;;;;;;;;;18.40;49.80;;;14.67;76.64;95949.88;5012260;28;19952;-51
2023/05/27 00:26:49;;;;;;;;;;;18.50;49.90;;;14.68;76.41;95947.97;5013006;28;19913;-48
2023/05/27 00:29:19;;;;;;;;;;;18.50;50.50;;;14.65;76.43;95945.84;5011908;28;19909;-48
2023/05/27 00:31:44;;;;;;;;;;;18.50;49.90;;;14.62;76.59;95951.78;5012334;28;20339;-49
2023/05/27 00:34:11;;;;;;;;;;;18.40;49.90;;;14.59;76.81;95939.72;5012279;28;19912;-53
2023/05/27 00:36:37;;;;;;;;;;;18.50;50.00;;;14.54;76.60;95937.91;5012782;28;19916;-48
2023/05/27 00:39:03;;;;;;;;;;;18.40;50.10;;;14.51;76.67;95938.47;5012856;28;19909;-48
2023/05/27 00:41:29;;;;;;;;;;;18.40;50.10;;;14.49;76.84;95945.16;5011477;28;20004;-48
2023/05/27 00:43:56;;;;;;;;;;;18.40;50.10;;;14.50;76.82;95944.84;5011559;28;20065;-50
2023/05/27 00:46:23;;;;;;;;;;;18.40;50.20;;;14.43;76.99;95938.22;5011412;28;19924;-50
2023/05/27 00:48:49;;;;;;;;;;;18.40;50.20;;;14.42;76.74;95940.13;5012936;28;19909;-49
2023/05/27 00:51:15;;;;;;;;;;;18.30;50.10;;;14.38;76.78;95933.69;4995066;28;19910;-48
2023/05/27 00:53:44;;;;;;;;;;;18.40;50.20;;;14.39;76.73;95937.19;5005394;28;19932;-49
2023/05/27 00:56:12;;;;;;;;;;;18.30;50.20;;;14.37;76.49;95931.31;5008892;28;20024;-48
2023/05/27 00:58:39;;;;;;;;;;;18.30;50.40;;;14.37;76.10;95934.78;5002214;28;19917;-46
2023/05/27 01:01:05;;;;;;;;;;;18.30;50.40;;;14.36;75.76;95927.84;5012115;28;20352;-48
2023/05/27 01:03:33;;;;;;;;;;;18.20;50.30;;;14.35;75.67;95921.69;5012080;28;20024;-47
2023/05/27 01:06:37;;;;;;;;;;;18.20;50.40;;;14.33;75.69;95923.03;5021281;28;20372;-46
2023/05/27 01:09:23;;;;;;;;;;;18.20;50.40;;;14.33;75.43;95917.69;5010755;28;19916;-46
2023/05/27 01:12:13;;;;;;;;;;;18.20;50.50;;;14.31;75.47;95925.19;5011011;28;19970;-46
2023/05/27 01:14:43;;;;;;;;;;;18.20;50.50;;;14.28;75.31;95926.53;5012355;28;20382;-46
2023/05/27 01:17:12;;;;;;;;;;;18.10;50.40;;;14.28;75.22;95923.06;5009692;28;20363;-46
2023/05/27 01:19:44;;;;;;;;;;;18.20;50.50;;;14.28;74.92;95920.38;5011757;28;19920;-47
2023/05/27 01:22:13;;;;;;;;;;;18.20;50.40;;;14.23;75.29;95921.22;5009498;28;19913;-46
2023/05/27 01:24:41;;;;;;;;;;;18.20;50.40;;;14.24;75.17;95916.66;5012049;28;19920;-46
2023/05/27 01:27:08;;;;;;;;;;;18.10;50.40;;;14.21;75.13;95920.69;5011641;28;19920;-46
2023/05/27 01:29:35;;;;;;;;;;;18.10;50.40;;;14.20;75.17;95919.13;5011198;28;19909;-48
2023/05/27 01:32:00;;;;;;;;;;;18.10;50.40;;;14.16;75.20;95920.72;5011259;28;19909;-46
2023/05/27 01:35:04;;;;;;;;;;;18.10;50.40;;;14.13;74.99;95918.59;5010992;28;20402;-46
2023/05/27 01:37:38;;;;;;;;;;;18.00;50.40;;;14.12;75.43;95919.69;4998944;28;19944;-46
2023/05/27 01:40:07;;;;;;;;;;;18.00;50.40;;;14.09;75.67;95920.25;5009789;28;19962;-53
2023/05/27 01:42:36;;;;;;;;;;;18.00;50.50;;;14.03;75.96;95922.16;5013631;28;19949;-48
2023/05/27 01:45:06;;;;;;;;;;;18.00;50.50;;;13.99;76.26;95923.00;5009309;28;19920;-49
2023/05/27 01:47:33;;;;;;;;;;;17.90;50.40;;;13.96;76.25;95921.66;5010773;28;19916;-48
2023/05/27 01:50:00;;;;;;;;;;;17.90;50.50;;;13.88;76.51;95920.41;5011754;28;19909;-50
2023/05/27 01:52:26;;;;;;;;;;;17.80;50.50;;;13.82;76.71;95928.72;5010103;28;20439;-46
2023/05/27 01:54:52;;;;;;;;;;;17.80;50.50;;;13.77;77.23;95926.06;5011464;28;19917;-55
2023/05/27 01:57:20;;;;;;;;;;;17.70;50.50;;;13.73;77.09;95925.84;5011575;28;20334;-51
2023/05/27 01:59:46;;;;;;;;;;;17.70;50.50;;;13.65;77.03;95927.19;5010756;28;19909;-49
2023/05/27 02:02:11;;;;;;;;;;;17.70;50.60;;;13.64;77.52;95928.28;5009540;28;20443;-53
2023/05/27 02:04:37;;;;;;;;;;;17.60;50.60;;;13.63;78.04;95928.53;5010311;28;19917;-47
2023/05/27 02:07:03;;;;;;;;;;;17.60;50.70;;;13.57;78.33;95934.97;5011404;28;19913;-46
2023/05/27 02:09:29;;;;;;;;;;;17.50;50.70;;;13.48;78.56;95933.97;5011221;28;19909;-48
2023/05/27 02:11:55;;;;;;;;;;;17.50;50.70;;;13.44;79.26;95939.06;5010144;28;19908;-51
2023/05/27 02:14:20;;;;;;;;;;;17.40;50.80;;;13.40;79.34;95936.13;5011224;28;19913;-46
2023/05/27 02:16:49;;;;;;;;;;;17.40;50.80;;;13.33;79.75;95932.94;5004814;28;19955;-49
2023/05/27 02:19:15;;;;;;;;;;;17.30;50.80;;;13.25;80.18;95941.53;5010442;28;19951;-46
2023/05/27 02:21:41;;;;;;;;;;;17.30;50.90;;;13.18;80.96;95931.09;5010791;28;19952;-46
2023/05/27 02:24:07;;;;;;;;;;;17.20;50.90;;;13.10;81.61;95938.88;5010153;28;20641;-51
2023/05/27 02:26:33;;;;;;;;;;;17.20;50.90;;;13.02;82.18;95934.09;5011201;28;19944;-49
2023/05/27 02:28:59;;;;;;;;;;;17.10;50.90;;;12.91;83.02;95933.28;5010502;28;20283;-49
2023/05/27 02:31:25;;;;;;;;;;;17.00;50.90;;;12.79;84.08;95932.81;5011001;28;19909;-47
2023/05/27 02:33:51;;;;;;;;;;;16.90;51.00;;;12.67;85.11;95920.50;5011122;28;20497;-49
2023/05/27 02:36:17;;;;;;;;;;;16.90;51.10;;;12.59;85.26;95925.59;5010589;28;19916;-47
2023/05/27 02:38:44;;;;;;;;;;;16.80;51.10;;;12.53;86.22;95924.00;5010886;28;19913;-48
2023/05/27 02:41:10;;;;;;;;;;;16.70;51.20;;;12.51;86.27;95934.97;5009785;28;19913;-48
2023/05/27 02:43:35;;;;;;;;;;;16.60;51.30;;;12.43;86.81;95933.59;5010902;28;19917;-49
2023/05/27 02:46:01;;;;;;;;;;;16.60;51.40;;;12.35;87.93;95936.03;5009883;28;19913;-50
2023/05/27 02:48:27;;;;;;;;;;;16.50;51.50;;;12.34;87.18;95934.41;5009154;28;19917;-48
2023/05/27 02:50:53;;;;;;;;;;;16.50;51.60;;;12.33;87.39;95940.81;5011160;28;19916;-52
2023/05/27 02:53:18;;;;;;;;;;;16.40;51.70;;;12.27;87.42;95927.47;5009638;28;19913;-49
2023/05/27 02:55:44;;;;;;;;;;;16.40;51.80;;;12.23;87.82;95930.94;5011070;28;19936;-49
2023/05/27 02:58:10;;;;;;;;;;;16.30;51.80;;;12.17;88.24;95932.81;5023748;22;19925;-49
2023/05/27 03:00:36;;;;;;;;;;;16.30;52.50;;;12.10;88.78;95928.81;4998462;28;19959;-46
2023/05/27 03:03:05;;;;;;;;;;;16.20;51.90;;;12.02;89.21;95930.91;5000141;28;20014;-45
2023/05/27 03:05:30;;;;;;;;;;;16.20;52.00;;;11.99;89.15;95931.44;5004268;28;19936;-45
2023/05/27 03:07:56;;;;;;;;;;;16.10;52.00;;;11.86;90.13;95926.63;5003188;28;20520;-48
2023/05/27 03:10:22;;;;;;;;;;;16.00;52.00;;;11.77;91.57;95926.28;5004282;28;20412;-49
2023/05/27 03:12:47;;;;;;;;;;;16.00;52.20;;;11.68;92.66;95924.41;4991574;28;19913;-47
2023/05/27 03:15:14;;;;;;;;;;;15.90;52.20;;;11.56;93.88;95916.63;4991663;28;19910;-45
2023/05/27 03:17:40;;;;;;;;;;;15.80;52.20;;;11.49;93.60;95919.53;5012451;28;19909;-45
2023/05/27 03:20:07;;;;;;;;;;;15.80;52.40;;;11.45;93.61;95931.00;5013483;28;19909;-48
2023/05/27 03:22:37;;;;;;;;;;;15.70;52.40;;;11.35;94.79;95926.44;5000990;28;20007;-46
2023/05/27 03:25:04;;;;;;;;;;;15.60;52.50;;;11.23;96.43;95933.84;5013413;28;19909;-46
2023/05/27 03:27:30;;;;;;;;;;;15.50;52.60;;;11.15;97.19;95932.47;4994670;28;20004;-45
2023/05/27 03:29:56;;;;;;;;;;;15.50;52.80;;;11.11;96.48;95931.38;5005781;28;20291;-46
2023/05/27 03:32:21;;;;;;;;;;;15.40;52.80;;;11.05;97.52;95929.75;5006390;28;19917;-45
2023/05/27 03:34:47;;;;;;;;;;;15.30;52.90;;;10.93;98.75;95931.81;5007408;28;19916;-46
2023/05/27 03:37:13;;;;;;;;;;;15.20;53.00;;;10.91;98.49;95932.09;5013916;28;19913;-46
2023/05/27 03:39:40;;;;;;;;;;;15.20;53.10;;;10.80;99.48;95928.53;5014196;28;19909;-45
2023/05/27 03:42:06;;;;;;;;;;;15.10;53.20;;;10.74;99.13;95932.22;5012868;28;19909;-46
2023/05/27 03:44:32;;;;;;;;;;;15.00;53.50;;;10.71;98.65;95934.59;5012674;28;20350;-48
2023/05/27 03:47:02;;;;;;;;;;;15.00;53.40;;;10.64;97.40;95926.84;5012768;28;19960;-46
2023/05/27 03:49:27;;;;;;;;;;;14.90;53.50;;;10.57;99.76;95931.59;5013489;28;19916;-51
2023/05/27 03:51:53;;;;;;;;;;;14.90;53.60;;;10.50;100.00;95934.47;5013366;28;20367;-46
2023/05/27 03:54:19;;;;;;;;;;;14.80;53.60;;;10.43;100.00;95933.88;4995354;28;19964;-45
2023/05/27 03:56:45;;;;;;;;;;;14.80;53.70;;;10.32;100.00;95935.66;5013624;28;19947;-45
2023/05/27 03:59:11;;;;;;;;;;;14.70;53.80;;;10.30;100.00;95943.09;5012465;28;19956;-45
2023/05/27 04:01:38;;;;;;;;;;;14.70;54.00;;;10.30;100.00;95942.28;5012859;28;19909;-50
2023/05/27 04:04:04;;;;;;;;;;;14.70;54.00;;;10.24;100.00;95940.59;5013000;28;19909;-48
2023/05/27 04:06:31;;;;;;;;;;;14.60;54.10;;;10.19;100.00;95939.53;5012977;28;19913;-45
2023/05/27 04:08:57;;;;;;;;;;;14.60;54.20;;;10.18;100.00;95932.59;5013378;28;19908;-47
2023/05/27 04:11:26;;;;;;;;;;;14.50;54.20;;;10.11;100.00;95937.31;5003336;28;19921;-51
2023/05/27 04:13:52;;;;;;;;;;;14.50;54.40;;;10.13;100.00;95929.09;5008996;28;19917;-50
2023/05/27 04:16:18;;;;;;;;;;;14.50;54.50;;;10.16;100.00;95932.03;5012493;28;20390;-48
2023/05/27 04:18:48;;;;;;;;;;;14.50;54.60;;;10.16;100.00;95925.91;4995471;28;19913;-47
2023/05/27 04:21:15;;;;;;;;;;;14.50;54.60;;;10.16;100.00;95931.25;5012796;28;19912;-45
2023/05/27 04:23:41;;;;;;;;;;;14.50;54.70;;;10.22;100.00;95932.88;5012161;28;19952;-46
2023/05/27 04:26:14;;;;;;;;;;;14.50;54.80;;;10.41;100.00;95930.69;5013238;28;19914;-47
2023/05/27 04:28:43;;;;;;;;;;;14.60;55.00;;;10.61;100.00;95930.00;5011470;28;19964;-45
2023/05/27 04:31:23;;;;;;;;;;;14.70;55.10;;;10.85;100.00;95933.13;5012181;28;19909;-45
2023/05/27 04:33:49;;;;;;;;;;;14.80;55.10;;;11.04;100.00;95920.94;5012788;28;19940;-45
2023/05/27 04:36:16;;;;;;;;;;;14.90;55.20;;;11.25;99.89;95927.19;5012019;28;19909;-45
2023/05/27 04:38:44;;;;;;;;;;;15.10;55.20;;;11.45;98.38;95929.13;4995191;28;19913;-45
2023/05/27 04:41:10;;;;;;;;;;;15.20;55.20;;;11.63;96.84;95927.06;5011554;28;19909;-48
2023/05/27 04:43:36;;;;;;;;;;;15.40;55.10;;;11.79;95.81;95934.84;4999482;28;19916;-46
2023/05/27 04:46:02;;;;;;;;;;;15.60;55.00;;;11.98;94.69;95937.06;5012596;28;20701;-46
2023/05/27 04:48:28;;;;;;;;;;;15.70;54.90;;;12.14;93.46;95933.34;5011201;28;19949;-45
2023/05/27 04:50:54;;;;;;;;;;;16.00;54.90;;;12.29;91.92;95931.75;5012204;28;20355;-47
2023/05/27 04:53:21;;;;;;;;;;;16.20;54.80;;;12.34;91.27;95931.75;5011708;28;19909;-47
2023/05/27 04:55:47;;;;;;;;;;;16.30;54.60;;;12.45;90.01;95928.81;5012948;28;20262;-45
2023/05/27 04:58:12;;;;;;;;;;;16.50;54.50;;;12.65;88.82;95930.66;5011007;28;19920;-46
2023/05/27 05:00:49;;;;;;;;;;;16.70;54.40;;;12.80;87.19;95924.50;5012026;28;19909;-46
2023/05/27 05:03:21;;;;;;;;;;;16.80;54.20;;;13.02;86.29;95928.75;5012301;28;19955;-45
2023/05/27 05:05:52;;;;;;;;;;;17.00;54.10;;;13.19;84.67;95932.72;5011265;28;19919;-46
2023/05/27 05:08:19;;;;;;;;;;;17.20;54.00;;;13.37;83.68;95927.84;5012372;28;19908;-47
2023/05/27 05:10:47;;;;;;;;;;;17.40;53.80;;;13.52;82.03;95930.47;5005284;28;19943;-46
2023/05/27 05:13:13;;;;;;;;;;;17.60;53.70;;;13.68;80.52;95933.88;5012715;28;19939;-46
2023/05/27 05:15:40;;;;;;;;;;;17.80;53.50;;;13.89;79.80;95931.91;5012151;28;19909;-45
2023/05/27 05:18:06;;;;;;;;;;;18.00;53.40;;;14.08;78.87;95932.06;5011184;28;20356;-47
2023/05/27 05:20:32;;;;;;;;;;;18.20;53.20;;;14.20;77.13;95934.38;5012179;28;19920;-47
2023/05/27 05:22:58;;;;;;;;;;;18.40;53.00;;;14.32;75.97;95926.78;5005646;28;20348;-47
2023/05/27 05:25:24;;;;;;;;;;;18.60;52.80;;;14.43;75.89;95936.34;5005940;28;19913;-50
2023/05/27 05:27:52;;;;;;;;;;;18.80;52.60;;;14.66;75.25;95934.84;4994383;28;20338;-52
2023/05/27 05:30:17;;;;;;;;;;;19.00;52.50;;;14.80;75.26;95940.38;5009472;28;20287;-48
2023/05/27 05:32:43;;;;;;;;;;;19.10;52.30;;;14.94;74.67;95935.91;4996443;28;19916;-55
2023/05/27 05:35:09;;;;;;;;;;;19.40;52.10;;;15.08;73.13;95935.28;5007749;28;20004;-46
2023/05/27 05:37:35;;;;;;;;;;;19.60;52.00;;;15.22;72.86;95933.50;5011910;28;19908;-48
2023/05/27 05:40:01;;;;;;;;;;;19.80;51.70;;;15.34;72.35;95933.91;5010821;28;19913;-45
2023/05/27 05:42:26;;;;;;;;;;;20.00;51.50;;;15.52;71.73;95934.25;5010883;28;20256;-45
2023/05/27 05:44:52;;;;;;;;;;;20.20;51.30;;;15.59;71.03;95932.78;5011125;28;19913;-49
2023/05/27 05:47:18;;;;;;;;;;;20.40;51.10;;;15.68;70.95;95931.09;4999862;28;19956;-47
2023/05/27 05:49:44;;;;;;;;;;;20.50;50.90;;;15.74;70.16;95931.84;5011650;28;19909;-49
2023/05/27 05:52:10;;;;;;;;;;;20.70;50.60;;;15.81;69.90;95932.28;5000735;28;20348;-51
2023/05/27 05:54:36;;;;;;;;;;;20.80;50.30;;;15.82;68.70;95922.34;5008846;28;19988;-47
2023/05/27 05:57:02;;;;;;;;;;;21.00;50.10;;;15.88;69.32;95927.34;4992084;28;19916;-46
2023/05/27 05:59:28;;;;;;;;;;;21.10;49.80;;;15.92;68.32;95930.28;5000039;28;19917;-49
2023/05/27 06:01:54;;;;;;;;;;;21.20;49.60;;;15.95;69.27;95935.03;4990655;28;20008;-52
2023/05/27 06:04:20;;;;;;;;;;;21.30;49.40;;;16.10;68.54;95921.38;4989660;28;19992;-47
2023/05/27 06:06:46;;;;;;;;;;;21.40;49.20;;;16.19;68.19;95926.91;4990966;28;19945;-52
2023/05/27 06:09:11;;;;;;;;;;;21.60;49.00;;;16.19;68.37;95927.72;4990704;28;19921;-47
2023/05/27 06:11:37;;;;;;;;;;;21.70;48.90;;;16.26;67.28;95929.22;4991088;28;20276;-48
2023/05/27 06:14:03;;;;;;;;;;;21.80;48.70;;;16.10;67.54;95917.91;4991131;28;19916;-46
2023/05/27 06:16:29;;;;;;;;;;;21.90;48.50;;;16.26;67.79;95930.03;4990516;28;19917;-45
2023/05/27 06:18:55;;;;;;;;;;;22.00;48.30;;;16.49;66.79;95920.28;4991855;28;20003;-46
2023/05/27 06:21:21;;;;;;;;;;;22.10;48.20;;;16.51;66.21;95928.03;4990955;28;20578;-46
2023/05/27 06:23:47;;;;;;;;;;;22.20;48.00;;;16.73;66.50;95935.47;4990487;28;19925;-45
2023/05/27 06:26:14;;;;;;;;;;;22.40;47.90;;;16.80;65.05;95935.94;4991404;28;19917;-46
2023/05/27 06:28:40;;;;;;;;;;;22.50;47.80;;;16.87;64.73;95922.91;4980172;28;20363;-48
2023/05/27 06:31:06;;;;;;;;;;;22.70;47.60;;;17.02;64.25;95929.91;4991283;28;19909;-46
2023/05/27 06:33:31;;;;;;;;;;;22.80;47.90;;;17.21;63.38;95935.22;4991725;28;20008;-50
2023/05/27 06:35:57;;;;;;;;;;;23.00;47.00;;;17.42;62.78;95930.22;4991210;28;20409;-49
2023/05/27 06:38:23;;;;;;;;;;;23.10;46.90;;;17.44;62.64;95930.72;4991239;28;20288;-52
2023/05/27 06:40:50;;;;;;;;;;;23.20;46.60;;;17.55;61.38;95932.91;4994422;28;19952;-49
2023/05/27 06:43:16;;;;;;;;;;;23.40;46.40;;;17.62;61.66;95931.72;4994759;28;20008;-50
2023/05/27 06:45:41;;;;;;;;;;;23.50;46.20;;;17.31;62.35;95926.94;4991329;28;20534;-46
2023/05/27 06:48:07;;;;;;;;;;;23.60;45.90;;;17.24;62.32;95932.72;4988724;28;19909;-48
2023/05/27 06:50:34;;;;;;;;;;;23.70;45.60;;;17.52;61.47;95928.13;4992042;28;20265;-51
2023/05/27 06:53:00;;;;;;;;;;;23.70;45.40;;;17.59;60.84;95938.50;4993742;28;20011;-48
2023/05/27 06:55:25;;;;;;;;;;;23.80;45.20;;;17.75;60.54;95925.50;4995294;28;20341;-53
2023/05/27 06:57:51;;;;;;;;;;;23.90;45.10;;;17.80;59.63;95922.75;4999964;28;19966;-50
2023/05/27 07:00:17;;;;;;;;;;;24.00;45.00;;;18.04;60.31;95930.56;5009883;28;19909;-51
2023/05/27 07:02:43;;;;;;;;;;;24.20;45.40;;;18.39;59.31;95925.47;5012975;28;20295;-47
2023/05/27 07:05:09;;;;;;;;;;;24.30;44.70;;;18.15;59.07;95936.56;5001679;28;19913;-47
2023/05/27 07:07:35;;;;;;;;;;;24.50;44.60;;;18.21;60.20;95929.94;5001231;28;19913;-49
2023/05/27 07:10:00;;;;;;;;;;;24.60;44.50;;;18.13;59.38;95926.06;5013905;28;19919;-52
2023/05/27 07:12:26;;;;;;;;;;;24.70;44.20;;;18.33;58.50;95930.19;5011686;28;19916;-49
2023/05/27 07:14:52;;;;;;;;;;;24.80;43.90;;;18.60;57.91;95925.78;4995121;28;19914;-51
2023/05/27 07:17:17;;;;;;;;;;;24.90;43.70;;;18.81;57.28;95931.50;5002847;28;19916;-49
2023/05/27 07:19:43;;;;;;;;;;;25.00;43.60;;;18.96;57.47;95925.72;5006002;28;19910;-49
2023/05/27 07:22:09;;;;;;;;;;;25.20;43.60;;;19.11;56.56;95925.31;4994632;28;20361;-52
2023/05/27 07:24:35;;;;;;;;;;;25.40;43.30;;;19.41;56.15;95928.31;5005380;28;19910;-51
2023/05/27 07:27:00;;;;;;;;;;;25.50;43.20;;;19.26;54.78;95923.31;4994531;28;19913;-51
2023/05/27 07:29:26;;;;;;;;;;;25.70;43.00;;;19.46;55.48;95921.94;5003315;28;19913;-49
2023/05/27 07:31:53;;;;;;;;;;;25.80;42.70;;;19.53;54.77;95920.41;5012131;28;19919;-52
2023/05/27 07:34:20;;;;;;;;;;;25.90;42.50;;;19.32;54.93;95917.47;4994769;28;20303;-53
2023/05/27 07:36:46;;;;;;;;;;;26.00;42.30;;;19.66;54.94;95916.00;5011791;28;19909;-48
2023/05/27 07:39:12;;;;;;;;;;;26.10;42.10;;;19.85;54.02;95913.81;4996208;28;20500;-48
2023/05/27 07:41:37;;;;;;;;;;;26.20;42.10;;;19.69;54.15;95911.91;5008831;28;19948;-47
2023/05/27 07:44:03;;;;;;;;;;;26.30;41.80;;;19.91;54.58;95897.47;5005807;28;19909;-50
2023/05/27 07:46:30;;;;;;;;;;;26.40;41.60;;;20.02;54.18;95906.84;4995649;28;19963;-48
2023/05/27 07:48:55;;;;;;;;;;;26.50;41.40;;;20.08;54.36;95908.28;5005330;28;19972;-49
2023/05/27 07:51:21;;;;;;;;;;;26.60;41.30;;;20.10;53.65;95906.06;4995736;28;19913;-48
2023/05/27 07:53:48;;;;;;;;;;;26.70;41.20;;;20.44;52.77;95904.47;5004517;28;19956;-49
2023/05/27 07:56:14;;;;;;;;;;;26.80;41.10;;;20.59;52.59;95905.91;5007052;28;19917;-51
2023/05/27 07:58:40;;;;;;;;;;;27.00;41.00;;;20.62;52.05;95906.09;4995309;28;20064;-50
2023/05/27 08:01:05;;;;;;;;;;;27.10;40.90;;;20.59;52.02;95908.59;5011048;28;19948;-48
2023/05/27 08:03:31;;;;;;;;;;;27.30;40.80;;;20.72;51.99;95905.75;5012737;28;19913;-50
2023/05/27 08:05:57;;;;;;;;;;;27.40;40.50;;;20.90;51.32;95906.50;5009362;28;20279;-46
2023/05/27 08:08:23;;;;;;;;;;;27.50;40.30;;;21.22;50.59;95902.41;4994468;28;20361;-52
2023/05/27 08:10:48;;;;;;;;;;;27.70;40.20;;;21.07;51.22;95905.66;5002105;28;20272;-50
2023/05/27 08:13:14;;;;;;;;;;;27.70;40.00;;;21.20;50.88;95899.22;5013264;28;19908;-46
2023/05/27 08:15:40;;;;;;;;;;;27.90;39.80;;;21.05;49.99;95898.97;4998777;28;19909;-47
2023/05/27 08:18:05;;;;;;;;;;;27.90;39.60;;;20.63;50.62;95886.00;5007435;28;19909;-50
2023/05/27 08:20:31;;;;;;;;;;;28.00;39.40;;;20.78;51.20;95898.25;4998273;28;19910;-47
2023/05/27 08:22:57;;;;;;;;;;;28.10;39.30;;;20.45;52.06;95897.94;4997976;28;20264;-46
2023/05/27 08:25:23;;;;;;;;;;;28.10;39.20;;;20.78;51.17;95892.84;4998717;28;20394;-50
2023/05/27 08:27:57;;;;;;;;;;;28.20;39.10;;;21.21;50.42;95894.59;4993690;28;19909;-50
2023/05/27 08:30:23;;;;;;;;;;;28.30;39.10;;;21.47;49.73;95887.19;5008848;28;19919;-51
2023/05/27 08:32:48;;;;;;;;;;;28.40;38.90;;;21.76;49.38;95879.38;5004429;28;19909;-50
2023/05/27 08:35:14;;;;;;;;;;;28.50;38.80;;;22.23;48.62;95881.94;5010496;28;19909;-48
2023/05/27 08:37:40;;;;;;;;;;;28.60;38.80;;;22.62;48.06;95877.91;4995108;28;19909;-51
2023/05/27 08:40:24;;;;;;;;;;;28.80;38.80;;;22.51;47.01;95863.19;4997460;28;19916;-50
2023/05/27 08:42:51;;;;;;;;;;;29.00;38.50;;;22.54;47.29;95866.00;5013037;28;19997;-52
2023/05/27 08:45:17;;;;;;;;;;;29.20;38.30;;;22.32;47.77;95856.31;5011214;28;19909;-51
2023/05/27 08:47:42;;;;;;;;;;;29.30;37.80;;;22.32;47.96;95863.66;5001209;28;19919;-49
2023/05/27 08:50:09;;;;;;;;;;;29.40;37.60;;;22.58;47.78;95858.00;5005693;28;19916;-48
2023/05/27 08:52:47;;;;;;;;;;;29.40;37.50;;;22.68;47.13;95856.75;4994298;28;19921;-48
2023/05/27 08:55:17;;;;;;;;;;;29.50;37.30;;;22.60;47.76;95858.44;5011499;28;19913;-49
2023/05/27 08:57:54;;;;;;;;;;;29.60;37.20;;;22.80;47.92;95865.72;5016465;23;19929;-58
2023/05/27 09:00:20;;;;;;;;;;;29.70;37.10;;;22.85;47.29;95856.59;5024872;28;19939;-51
2023/05/27 09:02:46;;;;;;;;;;;29.80;37.00;;;22.90;46.83;95859.06;5031193;28;19908;-50
2023/05/27 09:05:15;;;;;;;;;;;29.90;37.00;;;22.91;47.42;95859.88;5031676;28;19962;-50
2023/05/27 09:07:42;;;;;;;;;;;30.00;36.60;;;22.95;46.75;95858.91;5026607;28;19909;-47
2023/05/27 09:10:08;;;;;;;;;;;30.00;36.40;;;23.09;47.46;95842.25;5031672;28;19932;-49
2023/05/27 09:12:35;;;;;;;;;;;30.00;36.30;;;22.54;47.59;95851.66;5018494;28;19944;-50
2023/05/27 09:15:03;;;;;;;;;;;30.10;36.20;;;22.15;48.34;95859.13;5030990;28;19951;-49
2023/05/27 09:17:30;;;;;;;;;;;30.10;36.10;;;22.34;48.56;95847.81;5030969;28;19909;-48
2023/05/27 09:19:56;;;;;;;;;;;30.10;36.00;;;22.68;48.23;95854.06;5031370;28;20018;-49
2023/05/27 09:22:31;;;;;;;;;;;30.10;35.80;;;22.27;49.61;95856.50;5031178;28;19936;-50
2023/05/27 09:24:57;;;;;;;;;;;30.10;35.90;;;22.63;48.21;95861.28;5025819;28;19909;-47
2023/05/27 09:27:29;;;;;;;;;;;30.20;35.90;;;22.94;47.26;95843.75;5031498;28;19924;-52
2023/05/27 09:29:56;;;;;;;;;;;30.20;35.80;;;23.13;46.38;95845.09;5027623;28;19909;-49
2023/05/27 09:32:28;;;;;;;;;;;30.30;35.70;;;23.17;46.30;95841.38;5031631;28;19909;-52
2023/05/27 09:34:55;;;;;;;;;;;30.30;35.60;;;22.76;47.26;95834.97;5019893;28;20028;-48
2023/05/27 09:37:34;;;;;;;;;;;30.40;35.40;;;23.03;46.17;95830.03;5031419;28;20282;-49
2023/05/27 09:40:12;;;;;;;;;;;30.50;35.40;;;23.21;46.59;95823.25;5030813;28;20004;-47
2023/05/27 09:42:44;;;;;;;;;;;30.50;35.20;;;23.55;45.17;95834.78;5014717;28;19913;-48
2023/05/27 09:45:20;;;;;;;;;;;30.60;35.20;;;23.84;44.59;95830.25;5018488;28;20382;-48
2023/05/27 09:47:54;;;;;;;;;;;30.70;35.10;;;24.10;44.54;95830.63;5029864;28;19948;-48
2023/05/27 09:50:21;;;;;;;;;;;30.90;35.10;;;24.19;45.19;95823.13;5031844;28;20003;-48
2023/05/27 09:52:49;;;;;;;;;;;31.00;35.00;;;24.54;44.48;95830.72;5030528;28;20267;-50
2023/05/27 09:55:17;;;;;;;;;;;31.10;34.80;;;24.63;43.09;95831.34;5031495;28;19920;-48
2023/05/27 09:57:45;;;;;;;;;;;31.30;35.40;;;24.38;43.86;95825.19;5030992;28;20452;-52
2023/05/27 10:00:12;;;;;;;;;;;31.40;34.50;;;24.40;43.45;95822.13;5030122;28;20346;-48
2023/05/27 10:02:59;;;;;;;;;;;31.50;34.30;;;24.46;43.25;95823.47;5030431;28;20295;-51
2023/05/27 10:05:28;;;;;;;;;;;31.60;34.30;;;24.32;44.21;95823.03;5030178;28;19922;-54
2023/05/27 10:07:53;;;;;;;;;;;31.60;34.20;;;24.39;43.48;95812.38;5030632;28;20351;-49
2023/05/27 10:10:20;;;;;;;;;;;31.70;34.00;;;24.46;43.88;95823.47;5046094;28;19909;-55
2023/05/27 10:12:51;;;;;;;;;;;31.90;33.90;;;24.49;43.22;95811.09;5029178;28;19916;-50
2023/05/27 10:15:24;;;;;;;;;;;31.90;33.80;;;24.10;43.27;95810.78;5031387;28;19947;-50
2023/05/27 10:18:09;;;;;;;;;;;31.90;33.60;;;24.27;43.58;95812.44;5029926;28;19912;-53
2023/05/27 10:20:42;;;;;;;;;;;32.00;33.50;;;24.59;43.20;95797.75;5030838;28;19912;-51
2023/05/27 10:23:21;;;;;;;;;;;32.00;33.50;;;24.85;41.91;95807.34;5024088;28;20004;-50
2023/05/27 10:26:07;;;;;;;;;;;32.10;33.30;;;25.25;41.23;95815.38;5032679;28;19913;-51
2023/05/27 10:28:40;;;;;;;;;;;32.20;33.10;;;25.38;41.65;95802.44;5033507;28;20290;-51
2023/05/27 10:31:30;;;;;;;;;;;32.40;33.10;;;24.63;42.12;95795.94;5034968;28;20351;-48
2023/05/27 10:33:57;;;;;;;;;;;32.50;32.80;;;25.07;41.27;95804.03;5023658;28;19916;-49
2023/05/27 10:36:31;;;;;;;;;;;32.50;32.60;;;25.27;41.36;95806.88;5020834;28;19909;-51
2023/05/27 10:39:04;;;;;;;;;;;32.70;32.80;;;25.53;40.35;95801.63;5034344;28;19916;-48
2023/05/27 10:41:52;;;;;;;;;;;32.80;32.70;;;25.61;40.97;95813.50;5033528;28;19912;-48
2023/05/27 10:44:36;;;;;;;;;;;32.90;32.60;;;24.47;42.31;95808.72;5028849;28;19912;-54
2023/05/27 10:47:15;;;;;;;;;;;33.00;32.30;;;25.01;42.43;95800.00;5033956;28;20007;-50
2023/05/27 10:49:46;;;;;;;;;;;33.00;32.20;;;25.28;41.53;95798.31;5033995;28;19908;-50
2023/05/27 10:52:17;;;;;;;;;;;33.10;32.20;;;25.47;41.22;95808.50;5034307;28;19954;-50
2023/05/27 10:54:48;;;;;;;;;;;33.20;32.90;;;25.21;41.66;95800.09;5020812;28;19943;-49
2023/05/27 10:57:15;;;;;;;;;;;33.30;32.10;;;25.89;39.87;95796.97;5034677;28;19908;-49
2023/05/27 10:59:49;;;;;;;;;;;33.40;32.10;;;25.50;40.89;95798.81;5023886;28;19924;-51
2023/05/27 11:02:18;;;;;;;;;;;33.50;32.00;;;25.92;40.59;95793.53;5020484;28;19909;-55
2023/05/27 11:04:45;;;;;;;;;;;33.60;31.90;;;26.29;39.68;95791.16;5033626;28;19923;-50
2023/05/27 11:07:17;;;;;;;;;;;33.70;31.80;;;26.06;38.72;95793.03;5034144;28;20007;-51
2023/05/27 11:09:51;;;;;;;;;;;33.90;31.70;;;25.74;39.71;95786.88;5033769;28;19912;-49
2023/05/27 11:12:23;;;;;;;;;;;33.90;31.50;;;26.27;39.43;95781.75;5041689;28;19909;-51
2023/05/27 11:14:55;;;;;;;;;;;34.00;31.40;;;26.20;38.81;95779.69;5030522;28;19956;-49
2023/05/27 11:17:22;;;;;;;;;;;34.20;31.30;;;26.15;41.28;95769.03;5033130;28;19915;-51
2023/05/27 11:19:49;;;;;;;;;;;34.20;31.20;;;26.43;38.88;95778.94;5033783;28;19916;-53